Time;durP1;ratioP1;P1;durP2;ratioP2;P2;SDS_P1;SDS_P2;PMS_P1;PMS_P2;Temp;Humidity;BMP_temperature;BMP_pressure;BME280_temperature;BME280_humidity;BME280_pressure;Samples;Min_cycle;Max_cycle;Signal;HPM_P1;HPM_P2
2021/12/22 00:01:59;;;;;;;22.58;12.98;;;;;;;-0.09;88.43;102271.63;7394214;19;20018;-68
2021/12/22 00:04:27;;;;;;;20.55;13.40;;;;;;;-0.09;88.43;102272.53;7394763;19;20041;-68
2021/12/22 00:06:55;;;;;;;26.60;12.88;;;;;;;-0.09;88.20;102272.53;7394829;19;20400;-68
2021/12/22 00:09:24;;;;;;;22.05;12.52;;;;;;;-0.08;88.33;102269.09;7394775;19;20496;-68
2021/12/22 00:11:52;;;;;;;23.27;12.80;;;;;;;-0.10;88.20;102265.59;7393437;19;20015;-68
2021/12/22 00:14:20;;;;;;;20.05;12.80;;;;;;;-0.08;88.14;102270.81;7393989;19;20022;-68
2021/12/22 00:16:51;;;;;;;24.23;12.43;;;;;;;-0.07;88.40;102270.00;7394811;19;20018;-68
2021/12/22 00:19:19;;;;;;;20.35;12.38;;;;;;;-0.07;88.38;102272.59;7395264;19;20031;-68
2021/12/22 00:21:47;;;;;;;19.42;13.73;;;;;;;-0.07;88.31;102272.59;7393401;19;20019;-68
2021/12/22 00:24:15;;;;;;;21.85;13.75;;;;;;;-0.08;88.29;102274.28;7392856;19;20039;-67
2021/12/22 00:26:43;;;;;;;23.10;13.27;;;;;;;-0.07;88.15;102272.59;7393312;19;20102;-67
2021/12/22 00:29:13;;;;;;;20.17;11.75;;;;;;;-0.10;87.99;102273.34;7393161;19;20381;-68
2021/12/22 00:31:45;;;;;;;23.33;13.18;;;;;;;-0.08;88.20;102281.13;7392794;19;20021;-67
2021/12/22 00:34:17;;;;;;;23.98;13.38;;;;;;;-0.11;88.00;102279.31;7393857;19;20045;-66
2021/12/22 00:36:47;;;;;;;21.42;13.25;;;;;;;-0.09;88.08;102282.84;7395299;19;20014;-67
2021/12/22 00:39:15;;;;;;;28.50;14.25;;;;;;;-0.09;88.00;102281.94;7392494;19;20023;-68
2021/12/22 00:41:43;;;;;;;22.48;13.85;;;;;;;-0.09;88.29;102279.38;7394242;19;20031;-68
2021/12/22 00:44:13;;;;;;;24.02;13.95;;;;;;;-0.11;88.07;102279.31;7393851;19;20036;-68
2021/12/22 00:46:41;;;;;;;26.60;14.10;;;;;;;-0.08;88.14;102283.72;7392791;19;20042;-68
2021/12/22 00:49:10;;;;;;;27.75;14.48;;;;;;;-0.08;88.39;102287.16;7391795;19;20376;-68
2021/12/22 00:51:40;;;;;;;25.05;13.68;;;;;;;-0.08;88.14;102292.34;7392173;19;20500;-66
2021/12/22 00:54:08;;;;;;;26.23;14.05;;;;;;;-0.07;88.31;102290.66;7393719;19;20018;-69
2021/12/22 00:56:38;;;;;;;27.33;15.25;;;;;;;-0.10;88.04;102293.06;7393866;19;20018;-68
2021/12/22 00:59:06;;;;;;;30.33;15.73;;;;;;;-0.10;88.37;102295.66;7391936;19;20019;-68
2021/12/22 01:01:34;;;;;;;26.98;16.38;;;;;;;-0.10;88.46;102295.66;7393361;19;20014;-68
2021/12/22 01:04:02;;;;;;;28.98;16.00;;;;;;;-0.10;88.30;102293.06;7393794;19;20032;-68
2021/12/22 01:06:30;;;;;;;26.83;15.40;;;;;;;-0.11;88.52;102292.19;7401127;19;20015;-68
2021/12/22 01:09:01;;;;;;;33.70;15.23;;;;;;;-0.11;88.29;102288.75;7401187;19;20035;-68
2021/12/22 01:11:29;;;;;;;28.25;16.60;;;;;;;-0.11;88.46;102286.16;7399535;19;20018;-69
2021/12/22 01:13:57;;;;;;;25.15;14.60;;;;;;;-0.12;88.69;102292.13;7400579;19;21776;-68
2021/12/22 01:16:33;;;;;;;29.05;15.60;;;;;;;-0.10;88.42;102285.34;7400422;19;20378;-68
2021/12/22 01:19:05;;;;;;;26.25;15.48;;;;;;;-0.10;88.73;102290.50;7398914;19;20019;-68
2021/12/22 01:21:39;;;;;;;32.53;15.27;;;;;;;-0.11;88.82;102289.63;7397613;19;20471;-68
2021/12/22 01:24:22;;;;;;;30.95;14.82;;;;;;;-0.10;88.79;102287.91;7398157;19;20018;-67
2021/12/22 01:26:57;;;;;;;32.83;15.05;;;;;;;-0.14;88.99;102278.28;7400945;19;20029;-69
2021/12/22 01:29:25;;;;;;;26.55;14.43;;;;;;;-0.09;89.08;102287.09;7398631;19;20010;-67
2021/12/22 01:31:56;;;;;;;27.35;14.88;;;;;;;-0.11;89.08;102293.91;7397774;19;20022;-67
2021/12/22 01:34:25;;;;;;;26.90;15.55;;;;;;;-0.10;89.17;102287.91;7397224;19;20371;-67
2021/12/22 01:36:54;;;;;;;31.88;14.98;;;;;;;-0.11;89.02;102294.78;7400282;19;20011;-66
2021/12/22 01:39:25;;;;;;;30.58;14.70;;;;;;;-0.10;89.18;102295.66;7400792;19;20429;-66
2021/12/22 01:41:54;;;;;;;31.23;15.40;;;;;;;-0.11;89.43;102291.34;7400371;19;20031;-66
2021/12/22 01:44:35;;;;;;;26.38;14.55;;;;;;;-0.12;89.24;102295.59;7398972;19;20497;-67
2021/12/22 01:49:53;;;;;;;25.63;14.23;;;;;;;-0.11;89.57;102293.91;7399934;19;20078;-67
2021/12/22 01:52:22;;;;;;;28.70;16.10;;;;;;;-0.12;89.54;102299.88;7397440;19;20018;-67
2021/12/22 01:55:13;;;;;;;25.60;15.65;;;;;;;-0.12;89.49;102297.28;7399623;19;20019;-68
2021/12/22 01:57:47;;;;;;;28.98;14.55;;;;;;;-0.13;89.52;102305.84;7402159;19;20507;-67
2021/12/22 02:00:19;;;;;;;27.10;14.73;;;;;;;-0.15;89.62;102304.88;7402275;19;20429;-73
2021/12/22 02:02:47;;;;;;;28.98;14.65;;;;;;;-0.16;89.55;102301.44;7399911;19;20014;-67
2021/12/22 02:05:15;;;;;;;30.38;14.68;;;;;;;-0.18;89.57;102303.94;7397696;19;20032;-66
2021/12/22 02:07:43;;;;;;;25.98;14.63;;;;;;;-0.19;89.72;102304.75;7398878;19;20429;-67
2021/12/22 02:10:33;;;;;;;27.75;15.02;;;;;;;-0.19;89.75;102307.31;7399014;19;20015;-67
2021/12/22 02:13:01;;;;;;;24.90;14.25;;;;;;;-0.25;90.17;102296.72;7400391;19;20388;-65
2021/12/22 02:15:33;;;;;;;25.88;15.13;;;;;;;-0.20;89.93;102297.81;7395899;19;20023;-66
2021/12/22 02:18:04;;;;;;;23.50;13.07;;;;;;;-0.19;90.01;102294.44;7399971;19;20014;-66
2021/12/22 02:20:56;;;;;;;22.27;12.23;;;;;;;-0.19;90.06;102293.53;7398706;19;20011;-66
2021/12/22 02:23:25;;;;;;;19.83;11.48;;;;;;;-0.19;89.21;102293.53;7396450;19;20018;-66
2021/12/22 02:25:58;;;;;;;21.48;10.93;;;;;;;-0.22;89.37;102302.00;7396601;19;20041;-66
2021/12/22 02:28:44;;;;;;;24.93;11.53;;;;;;;-0.23;89.84;102300.25;7395946;19;20011;-66
2021/12/22 02:31:15;;;;;;;17.52;9.95;;;;;;;-0.26;89.61;102294.94;7396520;19;20426;-66
2021/12/22 02:33:46;;;;;;;18.10;11.48;;;;;;;-0.26;89.88;102289.78;7396093;19;20374;-66
2021/12/22 02:36:23;;;;;;;20.00;11.10;;;;;;;-0.27;89.87;102293.16;7395892;19;20025;-66
2021/12/22 02:38:54;;;;;;;18.40;11.13;;;;;;;-0.28;89.40;102290.53;7396306;19;20037;-66
2021/12/22 02:41:26;;;;;;;14.50;8.82;;;;;;;-0.28;89.50;102290.53;7398331;19;20022;-66
2021/12/22 02:43:55;;;;;;;18.73;9.13;;;;;;;-0.29;89.41;102291.31;7396092;19;20018;-66
2021/12/22 02:46:26;;;;;;;15.43;9.68;;;;;;;-0.29;89.26;102294.81;7397404;19;20514;-66
2021/12/22 02:48:55;;;;;;;16.25;9.02;;;;;;;-0.29;89.29;102294.81;7397981;19;20044;-66
2021/12/22 02:51:27;;;;;;;14.82;9.52;;;;;;;-0.30;89.27;102293.03;7397756;19;20036;-66
2021/12/22 02:54:05;;;;;;;14.73;10.07;;;;;;;-0.28;89.11;102290.53;7395925;19;20025;-66
2021/12/22 02:56:49;;;;;;;16.85;10.32;;;;;;;-0.29;88.88;102284.50;7395166;19;20375;-66
2021/12/22 02:59:37;;;;;;;16.67;9.73;;;;;;;-0.28;88.97;102290.53;7397901;19;20011;-66
2021/12/22 03:02:16;;;;;;;17.08;9.50;;;;;;;-0.27;88.92;102294.88;7397508;19;20539;-66
2021/12/22 03:04:52;;;;;;;16.95;9.85;;;;;;;-0.27;88.98;102294.88;7394854;19;20471;-71
2021/12/22 03:07:25;;;;;;;18.17;9.75;;;;;;;-0.28;88.82;102291.38;7395884;19;20014;-66
2021/12/22 03:10:00;;;;;;;20.55;10.23;;;;;;;-0.30;88.93;102290.44;7395676;19;20030;-64
2021/12/22 03:12:32;;;;;;;16.65;10.75;;;;;;;-0.28;88.65;102296.53;7395694;19;20011;-65
2021/12/22 03:15:00;;;;;;;15.50;10.30;;;;;;;-0.29;88.48;102301.63;7396941;19;20021;-67
2021/12/22 03:17:29;;;;;;;18.23;10.23;;;;;;;-0.31;88.45;102285.22;7398478;19;20040;-66
2021/12/22 03:19:57;;;;;;;15.52;9.13;;;;;;;-0.33;86.96;102279.97;7396479;19;20031;-67
2021/12/22 03:22:28;;;;;;;15.70;8.88;;;;;;;-0.34;87.54;102276.53;7396105;19;20478;-66
2021/12/22 03:24:56;;;;;;;16.50;9.95;;;;;;;-0.33;87.83;102279.97;7395800;19;20074;-66
2021/12/22 03:27:24;;;;;;;15.80;9.02;;;;;;;-0.35;87.98;102279.03;7394962;19;20014;-66
2021/12/22 03:29:54;;;;;;;18.38;9.52;;;;;;;-0.33;87.67;102282.53;7394851;19;20016;-66
2021/12/22 03:32:22;;;;;;;15.77;9.30;;;;;;;-0.32;87.74;102278.28;7394322;19;20014;-66
2021/12/22 03:34:50;;;;;;;16.38;10.23;;;;;;;-0.33;87.78;102277.38;7395641;19;20018;-66
2021/12/22 03:37:19;;;;;;;19.25;10.40;;;;;;;-0.33;88.03;102279.97;7394404;19;20022;-66
2021/12/22 03:39:49;;;;;;;22.10;10.57;;;;;;;-0.32;87.98;102278.28;7394064;19;20369;-66
2021/12/22 03:42:18;;;;;;;17.40;10.05;;;;;;;-0.34;87.95;102284.25;7396307;19;20019;-66
2021/12/22 03:44:46;;;;;;;22.25;10.93;;;;;;;-0.35;88.02;102290.22;7393885;19;20477;-66
2021/12/22 03:47:15;;;;;;;22.33;11.68;;;;;;;-0.34;87.93;102288.53;7395919;19;20031;-65
2021/12/22 03:49:43;;;;;;;17.75;11.45;;;;;;;-0.37;88.05;102283.22;7395801;19;20018;-66
2021/12/22 03:52:12;;;;;;;20.27;11.85;;;;;;;-0.40;87.77;102281.38;7395884;19;20027;-66
2021/12/22 03:54:40;;;;;;;20.55;12.02;;;;;;;-0.43;87.67;102285.50;7394876;19;20014;-66
2021/12/22 03:57:11;;;;;;;30.38;14.90;;;;;;;-0.46;87.50;102286.25;7395573;19;20026;-66
2021/12/22 03:59:39;;;;;;;33.25;17.17;;;;;;;-0.49;87.26;102291.25;7394063;19;20039;-65
2021/12/22 04:02:07;;;;;;;30.52;15.43;;;;;;;-0.54;87.39;102278.13;7395445;19;20035;-66
2021/12/22 04:04:35;;;;;;;24.00;13.15;;;;;;;-0.53;87.51;102286.75;7395149;19;20039;-66
2021/12/22 04:07:03;;;;;;;19.30;11.93;;;;;;;-0.56;86.55;102292.63;7393845;19;20479;-66
2021/12/22 04:09:31;;;;;;;23.58;13.85;;;;;;;-0.61;86.79;102288.94;7394113;19;20018;-66
2021/12/22 04:11:59;;;;;;;25.35;13.60;;;;;;;-0.65;86.96;102281.88;7395658;19;20031;-66
2021/12/22 04:14:30;;;;;;;20.48;12.73;;;;;;;-0.69;87.28;102277.41;7394609;19;20023;-66
2021/12/22 04:16:58;;;;;;;23.88;13.50;;;;;;;-0.71;86.84;102279.00;7393877;19;20035;-66
2021/12/22 04:19:26;;;;;;;21.20;14.05;;;;;;;-0.77;86.83;102268.38;7393312;19;20014;-66
2021/12/22 04:21:55;;;;;;;22.88;14.05;;;;;;;-0.83;87.04;102274.13;7392783;19;20500;-66
2021/12/22 04:24:23;;;;;;;28.25;15.02;;;;;;;-0.87;87.09;102272.22;7393012;19;20018;-66
2021/12/22 04:26:52;;;;;;;31.73;19.38;;;;;;;-0.93;86.59;102271.91;7394647;19;20030;-66
2021/12/22 04:29:20;;;;;;;48.90;23.33;;;;;;;-0.98;86.52;102280.28;7393772;19;20007;-67
2021/12/22 04:31:51;;;;;;;44.25;22.85;;;;;;;-1.04;86.75;102268.78;7394990;19;20018;-67
2021/12/22 04:34:19;;;;;;;39.67;21.92;;;;;;;-1.10;86.95;102273.63;7394409;19;20032;-68
2021/12/22 04:36:47;;;;;;;41.65;21.73;;;;;;;-1.16;86.75;102272.50;7392083;19;20492;-65
2021/12/22 04:39:15;;;;;;;26.98;15.70;;;;;;;-1.20;86.98;102269.69;7398162;19;20023;-66
2021/12/22 04:41:43;;;;;;;25.15;14.15;;;;;;;-1.24;87.20;102265.19;7401884;19;20023;-65
2021/12/22 04:44:11;;;;;;;27.38;14.45;;;;;;;-1.28;87.41;102269.31;7398834;19;20055;-66
2021/12/22 04:46:40;;;;;;;24.55;13.90;;;;;;;-1.33;87.34;102266.50;7399372;19;20015;-65
2021/12/22 04:49:10;;;;;;;28.75;15.23;;;;;;;-1.37;87.52;102264.56;7401629;19;20035;-66
2021/12/22 04:51:48;;;;;;;22.92;14.30;;;;;;;-1.40;87.26;102253.22;7398826;19;20083;-66
2021/12/22 04:54:29;;;;;;;26.17;14.60;;;;;;;-1.44;87.40;102256.44;7398808;19;20046;-67
2021/12/22 04:56:58;;;;;;;27.08;14.90;;;;;;;-1.51;87.36;102250.97;7398977;19;20052;-66
2021/12/22 04:59:27;;;;;;;24.35;14.45;;;;;;;-1.54;87.37;102268.84;7401209;19;20031;-66
2021/12/22 05:01:57;;;;;;;25.17;14.35;;;;;;;-1.58;87.70;102269.50;7401228;19;20019;-66
2021/12/22 05:04:28;;;;;;;26.45;16.33;;;;;;;-1.63;87.57;102268.38;7399976;19;20479;-66
2021/12/22 05:06:56;;;;;;;24.42;13.93;;;;;;;-1.69;87.68;102270.63;7398770;19;20022;-66
2021/12/22 05:09:24;;;;;;;26.58;14.30;;;;;;;-1.74;87.83;102272.06;7400277;19;20483;-67
2021/12/22 05:11:53;;;;;;;26.52;14.50;;;;;;;-1.80;87.67;102273.47;7401014;19;20023;-66
2021/12/22 05:14:21;;;;;;;27.65;15.18;;;;;;;-1.84;87.99;102271.56;7398101;19;20026;-66
2021/12/22 05:16:52;;;;;;;28.98;15.77;;;;;;;-1.88;87.77;102279.06;7398112;19;20035;-66
2021/12/22 05:19:20;;;;;;;27.63;16.15;;;;;;;-1.94;87.81;102265.84;7401028;19;20018;-67
2021/12/22 05:21:51;;;;;;;26.92;15.20;;;;;;;-1.99;88.04;102269.03;7400646;19;20019;-67
2021/12/22 05:24:19;;;;;;;31.38;16.02;;;;;;;-2.04;88.14;102262.75;7398521;19;20022;-67
2021/12/22 05:26:47;;;;;;;26.15;16.42;;;;;;;-2.07;88.25;102266.84;7400407;19;20483;-66
2021/12/22 05:29:16;;;;;;;28.67;14.75;;;;;;;-2.11;88.10;102267.50;7398839;19;20011;-67
2021/12/22 05:31:44;;;;;;;31.75;16.17;;;;;;;-2.15;88.25;102271.56;7397672;19;20023;-66
2021/12/22 05:34:13;;;;;;;26.17;14.13;;;;;;;-2.19;88.23;102267.94;7398944;19;20436;-66
2021/12/22 05:36:41;;;;;;;31.70;16.17;;;;;;;-2.24;88.33;102264.25;7398059;19;20039;-66
2021/12/22 05:39:12;;;;;;;31.80;16.85;;;;;;;-2.27;88.47;102256.38;7399828;19;20421;-66
2021/12/22 05:41:40;;;;;;;26.55;15.60;;;;;;;-2.31;88.52;102263.03;7400003;19;20022;-65
2021/12/22 05:44:08;;;;;;;33.58;15.73;;;;;;;-2.34;88.46;102256.81;7399087;19;20023;-66
2021/12/22 05:46:36;;;;;;;30.30;16.85;;;;;;;-2.39;88.57;102253.13;7400365;19;20027;-66
2021/12/22 05:49:05;;;;;;;34.83;17.52;;;;;;;-2.43;88.86;102254.63;7400422;19;20510;-66
2021/12/22 05:51:34;;;;;;;31.58;17.83;;;;;;;-2.46;88.88;102254.47;7397350;19;20014;-65
2021/12/22 05:54:03;;;;;;;33.85;16.88;;;;;;;-2.50;88.82;102250.84;7397199;19;20019;-66
2021/12/22 05:56:33;;;;;;;32.35;16.50;;;;;;;-2.52;89.07;102259.25;7397152;19;20022;-66
2021/12/22 05:59:02;;;;;;;30.58;17.50;;;;;;;-2.56;88.97;102257.34;7399113;19;20026;-65
2021/12/22 06:01:30;;;;;;;29.65;15.95;;;;;;;-2.59;89.15;102257.13;7399090;19;20033;-66
2021/12/22 06:03:59;;;;;;;34.95;17.73;;;;;;;-2.62;89.34;102257.84;7398881;19;20032;-66
2021/12/22 06:06:27;;;;;;;35.25;18.42;;;;;;;-2.65;89.50;102253.44;7396455;19;20074;-66
2021/12/22 06:08:56;;;;;;;37.15;18.65;;;;;;;-2.66;89.62;102258.47;7397182;19;20022;-66
2021/12/22 06:11:24;;;;;;;43.35;21.10;;;;;;;-2.68;89.61;102252.34;7396514;19;20031;-66
2021/12/22 06:13:55;;;;;;;36.05;19.58;;;;;;;-2.68;89.78;102257.50;7396424;19;20018;-66
2021/12/22 06:16:23;;;;;;;37.00;19.48;;;;;;;-2.70;89.59;102256.53;7396696;19;20078;-66
2021/12/22 06:18:57;;;;;;;39.80;20.75;;;;;;;-2.72;89.74;102258.13;7398608;19;20040;-66
2021/12/22 06:21:25;;;;;;;37.47;20.05;;;;;;;-2.72;89.94;102260.69;7396443;19;20010;-66
2021/12/22 06:23:54;;;;;;;39.33;20.02;;;;;;;-2.76;90.14;102266.47;7397662;19;20512;-67
2021/12/22 06:26:22;;;;;;;35.92;18.77;;;;;;;-2.78;90.05;102268.94;7399170;19;20022;-65
2021/12/22 06:28:50;;;;;;;35.92;18.42;;;;;;;-2.80;90.22;102273.97;7396717;19;20488;-66
2021/12/22 06:31:21;;;;;;;35.35;18.70;;;;;;;-2.81;90.07;102279.03;7395972;19;20025;-66
2021/12/22 06:33:49;;;;;;;39.10;18.75;;;;;;;-2.84;90.30;102274.63;7397753;19;20536;-66
2021/12/22 06:36:19;;;;;;;39.78;19.73;;;;;;;-2.87;90.30;102281.25;7395478;19;20035;-66
2021/12/22 06:38:48;;;;;;;38.70;20.52;;;;;;;-2.89;90.29;102278.59;7397394;19;20011;-66
2021/12/22 06:41:16;;;;;;;39.60;20.27;;;;;;;-2.92;90.20;102275.84;7397594;19;20022;-65
2021/12/22 06:43:44;;;;;;;41.05;20.88;;;;;;;-2.94;90.34;102285.16;7398575;19;20022;-65
2021/12/22 06:46:12;;;;;;;43.33;19.30;;;;;;;-2.96;90.54;102282.50;7396805;19;20448;-66
2021/12/22 06:48:43;;;;;;;39.03;19.67;;;;;;;-2.98;90.68;102278.09;7397210;19;20011;-65
2021/12/22 06:51:11;;;;;;;40.70;20.13;;;;;;;-3.00;90.53;102279.66;7397949;19;20015;-66
2021/12/22 06:53:39;;;;;;;43.25;22.50;;;;;;;-3.01;90.73;102275.31;7395131;19;20058;-65
2021/12/22 06:56:08;;;;;;;42.47;20.23;;;;;;;-3.04;90.46;102278.59;7395039;19;20381;-66
2021/12/22 06:58:36;;;;;;;45.72;21.33;;;;;;;-3.05;90.59;102278.50;7397339;19;20031;-66
2021/12/22 07:01:04;;;;;;;44.13;21.77;;;;;;;-3.06;91.03;102279.28;7396484;19;20373;-66
2021/12/22 07:03:33;;;;;;;46.60;22.92;;;;;;;-3.08;90.84;102275.75;7392123;19;20032;-65
2021/12/22 07:06:03;;;;;;;46.58;21.92;;;;;;;-3.11;91.14;102279.91;7394586;19;20018;-66
2021/12/22 07:08:31;;;;;;;49.45;24.63;;;;;;;-3.12;90.99;102274.69;7395540;19;20023;-65
2021/12/22 07:10:59;;;;;;;51.45;23.95;;;;;;;-3.13;90.90;102281.50;7394804;19;20031;-65
2021/12/22 07:13:28;;;;;;;51.03;25.45;;;;;;;-3.14;91.12;102273.72;7395024;19;20032;-66
2021/12/22 07:15:56;;;;;;;57.47;25.05;;;;;;;-3.13;91.18;102285.75;7394787;19;20019;-66
2021/12/22 07:18:24;;;;;;;56.35;25.23;;;;;;;-3.14;91.24;102278.84;7394550;19;20035;-65
2021/12/22 07:20:53;;;;;;;58.08;25.80;;;;;;;-3.15;91.31;102277.94;7396242;19;20011;-66
2021/12/22 07:23:24;;;;;;;54.63;26.20;;;;;;;-3.17;91.49;102279.56;7396199;19;20036;-68
2021/12/22 07:25:52;;;;;;;56.42;25.10;;;;;;;-3.15;91.51;102277.94;7395702;19;20023;-66
2021/12/22 07:28:20;;;;;;;51.13;25.27;;;;;;;-3.14;91.58;102278.84;7395481;19;20026;-67
2021/12/22 07:30:48;;;;;;;55.42;25.38;;;;;;;-3.14;91.58;102276.28;7394408;19;20500;-67
2021/12/22 07:33:17;;;;;;;54.40;26.02;;;;;;;-3.16;91.88;102273.63;7395733;19;20438;-66
2021/12/22 07:35:55;;;;;;;51.90;26.35;;;;;;;-3.14;91.72;102278.84;7394431;19;20031;-67
2021/12/22 07:38:32;;;;;;;140.18;62.22;;;;;;;-3.14;91.90;102282.28;7396385;19;20035;-67
2021/12/22 07:41:02;;;;;;;72.60;33.90;;;;;;;-3.13;92.20;102284.06;7396328;19;20025;-67
2021/12/22 07:43:32;;;;;;;60.30;27.92;;;;;;;-3.12;92.22;102283.28;7394217;19;20035;-66
2021/12/22 07:46:01;;;;;;;65.50;29.83;;;;;;;-3.12;91.91;102280.72;7393286;19;20014;-66
2021/12/22 07:48:29;;;;;;;73.45;35.03;;;;;;;-3.12;92.14;102280.72;7394481;19;20023;-67
2021/12/22 07:50:59;;;;;;;70.93;31.70;;;;;;;-3.11;92.14;102284.16;7397543;19;20015;-67
2021/12/22 07:53:36;;;;;;;59.28;29.55;;;;;;;-3.10;92.31;102280.78;7395823;19;20070;-66
2021/12/22 07:56:05;;;;;;;66.38;30.15;;;;;;;-3.09;92.15;102280.00;7393870;19;20218;-67
2021/12/22 07:58:33;;;;;;;69.55;26.10;;;;;;;-3.08;92.09;102288.56;7395173;19;20471;-66
2021/12/22 08:01:01;;;;;;;55.20;25.70;;;;;;;-3.07;92.30;102287.78;7394850;19;20022;-67
2021/12/22 08:03:30;;;;;;;58.15;25.98;;;;;;;-3.08;92.45;102286.91;7394871;19;20026;-67
2021/12/22 08:05:58;;;;;;;55.63;25.30;;;;;;;-3.05;92.35;102283.66;7393044;19;20359;-67
2021/12/22 08:08:26;;;;;;;61.28;27.40;;;;;;;-3.03;92.63;102282.03;7393773;19;20014;-66
2021/12/22 08:10:57;;;;;;;55.95;26.88;;;;;;;-3.02;92.36;102288.94;7394834;19;20483;-67
2021/12/22 08:13:25;;;;;;;58.75;25.33;;;;;;;-2.99;92.57;102289.16;7393360;19;20022;-66
2021/12/22 08:15:53;;;;;;;63.08;26.92;;;;;;;-2.98;92.58;102290.91;7393044;19;20026;-66
2021/12/22 08:18:28;;;;;;;57.13;26.20;;;;;;;-2.95;92.83;102298.78;7392536;19;20035;-66
2021/12/22 08:20:56;;;;;;;60.65;27.90;;;;;;;-2.93;92.85;102293.72;7394602;19;20030;-66
2021/12/22 08:23:24;;;;;;;60.10;26.33;;;;;;;-2.89;93.17;102298.25;7392963;19;20026;-66
2021/12/22 08:25:53;;;;;;;60.63;26.52;;;;;;;-2.87;93.11;102295.00;7392065;19;20369;-66
2021/12/22 08:28:24;;;;;;;63.80;26.55;;;;;;;-2.85;92.98;102298.53;7394443;19;20015;-66
2021/12/22 08:30:52;;;;;;;60.40;27.27;;;;;;;-2.80;92.80;102301.38;7393076;19;20475;-66
2021/12/22 08:33:25;;;;;;;59.70;28.08;;;;;;;-2.76;93.09;102310.16;7394229;19;20018;-66
2021/12/22 08:38:53;;;;;;;59.17;28.63;;;;;;;-2.71;93.14;102296.75;7388934;19;20019;-66
2021/12/22 08:41:23;;;;;;;61.42;28.23;;;;;;;-2.67;92.98;102297.81;7392714;19;20027;-66
2021/12/22 08:43:56;;;;;;;66.10;29.02;;;;;;;-2.62;93.26;102293.81;7392153;19;20022;-66
2021/12/22 08:46:25;;;;;;;65.30;30.98;;;;;;;-2.58;93.05;102284.63;7394283;19;20015;-66
2021/12/22 08:48:53;;;;;;;60.40;30.35;;;;;;;-2.53;92.93;102288.31;7393774;19;20036;-66
2021/12/22 08:51:21;;;;;;;63.05;26.52;;;;;;;-2.49;93.25;102285.13;7393856;19;20014;-66
2021/12/22 08:53:50;;;;;;;57.53;28.42;;;;;;;-2.46;93.16;102288.75;7394268;19;20036;-66
2021/12/22 08:56:18;;;;;;;63.22;29.88;;;;;;;-2.41;93.09;102278.75;7394019;19;20039;-66
2021/12/22 08:58:47;;;;;;;56.15;27.35;;;;;;;-2.38;92.95;102276.34;7393498;19;20389;-67
2021/12/22 09:01:18;;;;;;;58.13;27.52;;;;;;;-2.35;92.87;102276.53;7393628;19;20022;-66
2021/12/22 09:03:46;;;;;;;66.10;28.17;;;;;;;-2.30;92.68;102274.19;7391698;19;20082;-66
2021/12/22 09:06:14;;;;;;;53.28;26.08;;;;;;;-2.26;92.51;102273.56;7391412;19;20027;-66
2021/12/22 09:08:43;;;;;;;52.60;27.05;;;;;;;-2.21;92.61;102278.94;7393931;19;20034;-66
2021/12/22 09:11:12;;;;;;;49.97;26.10;;;;;;;-2.18;92.57;102269.72;7393748;19;20018;-65
2021/12/22 09:13:41;;;;;;;50.97;25.75;;;;;;;-2.13;92.02;102276.00;7391707;19;20031;-65
2021/12/22 09:16:10;;;;;;;47.33;25.13;;;;;;;-2.09;91.74;102268.47;7391230;19;20018;-66
2021/12/22 09:18:42;;;;;;;45.80;24.65;;;;;;;-2.05;91.84;102262.69;7391075;19;20022;-70
2021/12/22 09:21:12;;;;;;;47.53;24.35;;;;;;;-2.00;92.07;102267.28;7391880;19;20015;-66
2021/12/22 09:23:41;;;;;;;48.17;26.58;;;;;;;-1.97;91.63;102262.31;7391701;19;20018;-67
2021/12/22 09:26:10;;;;;;;46.67;23.75;;;;;;;-1.92;91.45;102262.56;7394735;19;20010;-66
2021/12/22 09:28:39;;;;;;;41.42;23.60;;;;;;;-1.87;91.01;102265.34;7400936;19;20028;-66
2021/12/22 09:31:10;;;;;;;40.53;22.75;;;;;;;-1.86;89.94;102268.03;7398395;19;20023;-66
2021/12/22 09:33:42;;;;;;;38.17;21.13;;;;;;;-1.79;90.54;102261.53;7400813;19;20022;-64
2021/12/22 09:36:13;;;;;;;39.50;20.63;;;;;;;-1.75;90.23;102271.16;7397791;19;20018;-67
2021/12/22 09:38:41;;;;;;;36.90;20.08;;;;;;;-1.68;89.03;102268.13;7397994;19;20425;-66
2021/12/22 09:41:11;;;;;;;31.40;18.00;;;;;;;-1.63;89.30;102270.94;7400618;19;20032;-67
2021/12/22 09:43:40;;;;;;;35.25;20.08;;;;;;;-1.59;88.56;102267.72;7399835;19;20496;-66
2021/12/22 09:46:12;;;;;;;32.03;19.13;;;;;;;-1.55;88.53;102261.94;7397743;19;20023;-65
2021/12/22 09:48:52;;;;;;;35.97;18.55;;;;;;;-1.50;88.35;102257.91;7397824;19;20022;-66
2021/12/22 09:54:06;;;;;;;32.53;18.67;;;;;;;-1.38;87.49;102254.19;7400725;19;20078;-66
2021/12/22 09:56:35;;;;;;;32.05;17.80;;;;;;;-1.34;86.93;102248.38;7400148;19;20468;-67
2021/12/22 09:59:04;;;;;;;29.92;17.75;;;;;;;-1.29;87.28;102238.34;7399432;19;20489;-66
2021/12/22 10:01:32;;;;;;;30.88;18.08;;;;;;;-1.24;86.99;102239.44;7399559;19;20037;-66
2021/12/22 10:04:03;;;;;;;34.03;20.23;;;;;;;-1.21;87.32;102235.34;7397154;19;20018;-65
2021/12/22 10:06:31;;;;;;;30.92;18.45;;;;;;;-1.14;87.42;102231.38;7397622;19;20015;-67
2021/12/22 10:09:03;;;;;;;29.58;17.92;;;;;;;-1.11;86.07;102220.34;7399925;19;20022;-67
2021/12/22 10:11:33;;;;;;;28.38;15.75;;;;;;;-1.07;84.98;102220.56;7399578;19;20015;-66
2021/12/22 10:14:02;;;;;;;26.20;15.63;;;;;;;-1.03;85.57;102225.06;7398543;19;20031;-66
2021/12/22 10:16:32;;;;;;;22.00;14.00;;;;;;;-0.99;84.97;102220.94;7396085;19;20536;-66
2021/12/22 10:19:08;;;;;;;23.92;14.52;;;;;;;-0.95;84.42;102222.88;7396368;19;20038;-66
2021/12/22 10:21:37;;;;;;;20.95;13.20;;;;;;;-0.94;84.05;102209.19;7399344;19;20018;-66
2021/12/22 10:24:08;;;;;;;24.42;14.60;;;;;;;-0.89;83.53;102212.84;7396233;19;20052;-66
2021/12/22 10:26:37;;;;;;;25.50;15.00;;;;;;;-0.88;85.00;102209.47;7399346;19;20022;-67
2021/12/22 10:29:07;;;;;;;23.90;14.60;;;;;;;-0.82;85.10;102211.50;7397846;19;20014;-66
2021/12/22 10:31:38;;;;;;;23.63;14.93;;;;;;;-0.77;84.20;102216.84;7398903;19;20023;-67
2021/12/22 10:34:13;;;;;;;21.00;13.25;;;;;;;-0.74;83.71;102217.00;7397936;19;20014;-67
2021/12/22 10:36:48;;;;;;;19.80;13.45;;;;;;;-0.70;82.86;102214.63;7396175;19;20032;-67
2021/12/22 10:39:22;;;;;;;21.13;12.52;;;;;;;-0.67;83.97;102213.88;7397534;19;20083;-65
2021/12/22 10:41:51;;;;;;;20.88;12.77;;;;;;;-0.66;82.88;102202.78;7396701;19;20031;-66
2021/12/22 10:44:20;;;;;;;22.67;13.07;;;;;;;-0.61;82.70;102215.91;7396969;19;20014;-67
2021/12/22 10:46:49;;;;;;;18.98;13.40;;;;;;;-0.58;81.76;102208.28;7397856;19;20022;-66
2021/12/22 10:49:20;;;;;;;19.33;13.90;;;;;;;-0.56;83.02;102210.13;7395437;19;20014;-66
2021/12/22 10:51:58;;;;;;;23.35;15.93;;;;;;;-0.52;83.05;102204.34;7395393;19;20032;-66
2021/12/22 10:54:34;;;;;;;24.40;16.35;;;;;;;-0.47;84.34;102206.25;7397878;19;20019;-65
2021/12/22 10:57:03;;;;;;;28.50;15.20;;;;;;;-0.43;85.00;102201.31;7396625;19;20010;-67
2021/12/22 10:59:45;;;;;;;25.35;16.13;;;;;;;-0.37;84.24;102201.59;7397872;19;20027;-66
2021/12/22 11:02:14;;;;;;;21.83;15.25;;;;;;;-0.33;84.63;102200.00;7397335;19;20483;-67
2021/12/22 11:04:49;;;;;;;25.75;16.63;;;;;;;-0.29;84.08;102190.72;7396791;19;20036;-65
2021/12/22 11:07:23;;;;;;;22.73;15.25;;;;;;;-0.26;83.16;102191.75;7397337;19;20025;-67
2021/12/22 11:09:51;;;;;;;24.23;15.40;;;;;;;-0.24;82.92;102179.81;7396385;19;20018;-66
2021/12/22 11:12:20;;;;;;;23.75;15.25;;;;;;;-0.21;82.37;102186.81;7395397;19;20031;-66
2021/12/22 11:14:51;;;;;;;20.40;13.73;;;;;;;-0.21;82.80;102186.81;7395699;19;20035;-66
2021/12/22 11:17:22;;;;;;;23.80;16.13;;;;;;;-0.18;83.54;102190.44;7396513;19;20019;-66
2021/12/22 11:19:58;;;;;;;22.63;15.35;;;;;;;-0.15;80.28;102186.19;7396603;19;20369;-67
2021/12/22 11:22:40;;;;;;;24.77;14.93;;;;;;;-0.13;81.50;102187.16;7395979;19;20019;-67
2021/12/22 11:25:11;;;;;;;26.95;16.05;;;;;;;-0.13;82.11;102184.59;7393678;19;20015;-67
2021/12/22 11:27:40;;;;;;;22.80;15.43;;;;;;;-0.11;81.73;102190.72;7394370;19;20035;-69
2021/12/22 11:30:22;;;;;;;21.95;15.80;;;;;;;-0.11;80.67;102183.84;7391806;19;20365;-68
2021/12/22 11:32:51;;;;;;;23.27;15.68;;;;;;;-0.10;81.78;102176.97;7394566;19;20019;-66